sensor_id;sensor_type;location;lat;lon;timestamp;pressure;altitude;pressure_sealevel;temperature;humidity
76205;BME280;64986;55.672;37.628;2023-04-01T00:01:54;98085.63;;;2.23;76.82
76205;BME280;64986;55.672;37.628;2023-04-01T00:04:20;98076.78;;;2.17;77.05
76205;BME280;64986;55.672;37.628;2023-04-01T00:06:46;98081.91;;;2.11;76.55
76205;BME280;64986;55.672;37.628;2023-04-01T00:09:13;98082.72;;;2.11;77.10
76205;BME280;64986;55.672;37.628;2023-04-01T00:11:39;98078.53;;;2.10;77.41
76205;BME280;64986;55.672;37.628;2023-04-01T00:14:07;98075.56;;;2.13;76.79
76205;BME280;64986;55.672;37.628;2023-04-01T00:16:33;98073.53;;;2.09;76.16
76205;BME280;64986;55.672;37.628;2023-04-01T00:18:58;98075.03;;;1.97;75.85
76205;BME280;64986;55.672;37.628;2023-04-01T00:21:24;98073.16;;;1.90;75.59
76205;BME280;64986;55.672;37.628;2023-04-01T00:23:51;98076.03;;;1.81;76.90
76205;BME280;64986;55.672;37.628;2023-04-01T00:26:17;98076.22;;;1.79;76.87
76205;BME280;64986;55.672;37.628;2023-04-01T00:28:45;98074.63;;;1.78;77.61
76205;BME280;64986;55.672;37.628;2023-04-01T00:31:14;98070.41;;;1.77;77.61
76205;BME280;64986;55.672;37.628;2023-04-01T00:33:40;98056.75;;;1.69;77.04
76205;BME280;64986;55.672;37.628;2023-04-01T00:36:14;98067.75;;;1.71;77.23
76205;BME280;64986;55.672;37.628;2023-04-01T00:38:41;98070.94;;;1.73;77.68
76205;BME280;64986;55.672;37.628;2023-04-01T00:41:08;98062.03;;;1.75;77.87
76205;BME280;64986;55.672;37.628;2023-04-01T00:43:36;98066.09;;;1.84;78.43
76205;BME280;64986;55.672;37.628;2023-04-01T00:46:01;98064.38;;;1.91;77.70
76205;BME280;64986;55.672;37.628;2023-04-01T00:48:33;98061.78;;;1.91;77.61
76205;BME280;64986;55.672;37.628;2023-04-01T00:51:06;98055.16;;;1.89;78.18
76205;BME280;64986;55.672;37.628;2023-04-01T00:53:34;98053.44;;;1.96;78.11
76205;BME280;64986;55.672;37.628;2023-04-01T00:58:41;98060.19;;;1.90;77.21
76205;BME280;64986;55.672;37.628;2023-04-01T01:01:09;98049.91;;;1.82;77.50
76205;BME280;64986;55.672;37.628;2023-04-01T01:03:35;98053.75;;;1.86;77.76
76205;BME280;64986;55.672;37.628;2023-04-01T01:11:21;98065.59;;;1.95;77.90
76205;BME280;64986;55.672;37.628;2023-04-01T01:14:01;98069.06;;;2.03;78.12
76205;BME280;64986;55.672;37.628;2023-04-01T01:16:31;98068.25;;;2.02;77.92
76205;BME280;64986;55.672;37.628;2023-04-01T01:24:59;98067.91;;;2.05;77.80
76205;BME280;64986;55.672;37.628;2023-04-01T01:27:29;98059.47;;;2.03;77.45
76205;BME280;64986;55.672;37.628;2023-04-01T01:30:27;98072.13;;;2.06;78.22
76205;BME280;64986;55.672;37.628;2023-04-01T01:36:04;98071.31;;;2.06;78.14
76205;BME280;64986;55.672;37.628;2023-04-01T01:38:33;98059.56;;;2.10;78.04
76205;BME280;64986;55.672;37.628;2023-04-01T01:41:00;98065.00;;;2.15;77.98
76205;BME280;64986;55.672;37.628;2023-04-01T01:43:30;98063.22;;;2.15;77.45
76205;BME280;64986;55.672;37.628;2023-04-01T01:46:00;98070.00;;;2.16;78.10
76205;BME280;64986;55.672;37.628;2023-04-01T01:48:27;98070.38;;;2.13;78.05
76205;BME280;64986;55.672;37.628;2023-04-01T01:50:54;98072.78;;;2.15;77.93
76205;BME280;64986;55.672;37.628;2023-04-01T01:53:20;98073.59;;;2.15;78.07
76205;BME280;64986;55.672;37.628;2023-04-01T01:55:47;98072.25;;;2.19;77.55
76205;BME280;64986;55.672;37.628;2023-04-01T02:00:53;98072.66;;;2.23;78.12
76205;BME280;64986;55.672;37.628;2023-04-01T02:03:22;98075.25;;;2.23;77.76
76205;BME280;64986;55.672;37.628;2023-04-01T02:05:50;98074.66;;;2.21;77.41
76205;BME280;64986;55.672;37.628;2023-04-01T02:08:43;98075.25;;;2.23;78.38
76205;BME280;64986;55.672;37.628;2023-04-01T02:11:12;98076.78;;;2.17;77.69
76205;BME280;64986;55.672;37.628;2023-04-01T02:13:47;98073.19;;;2.18;78.28
76205;BME280;64986;55.672;37.628;2023-04-01T02:16:20;98075.63;;;2.20;78.27
76205;BME280;64986;55.672;37.628;2023-04-01T02:18:49;98075.81;;;2.18;78.31
76205;BME280;64986;55.672;37.628;2023-04-01T02:21:20;98083.03;;;2.23;78.00
76205;BME280;64986;55.672;37.628;2023-04-01T02:23:47;98080.63;;;2.21;77.62
76205;BME280;64986;55.672;37.628;2023-04-01T02:26:13;98086.25;;;2.25;77.89
76205;BME280;64986;55.672;37.628;2023-04-01T02:28:40;98073.84;;;2.20;77.79
76205;BME280;64986;55.672;37.628;2023-04-01T02:31:09;98069.25;;;2.22;77.74
76205;BME280;64986;55.672;37.628;2023-04-01T02:33:36;98084.91;;;2.29;77.72
76205;BME280;64986;55.672;37.628;2023-04-01T02:36:04;98093.69;;;2.28;77.44
76205;BME280;64986;55.672;37.628;2023-04-01T02:38:29;98085.91;;;2.28;77.20
76205;BME280;64986;55.672;37.628;2023-04-01T02:40:59;98089.09;;;2.30;77.45
76205;BME280;64986;55.672;37.628;2023-04-01T02:43:27;98082.31;;;2.29;77.49
76205;BME280;64986;55.672;37.628;2023-04-01T02:45:52;98088.50;;;2.28;77.81
76205;BME280;64986;55.672;37.628;2023-04-01T02:48:18;98089.34;;;2.35;77.19
76205;BME280;64986;55.672;37.628;2023-04-01T02:50:44;98086.13;;;2.33;77.83
76205;BME280;64986;55.672;37.628;2023-04-01T02:53:09;98088.91;;;2.32;77.08
76205;BME280;64986;55.672;37.628;2023-04-01T02:55:35;98084.44;;;2.26;77.35
76205;BME280;64986;55.672;37.628;2023-04-01T02:58:01;98092.09;;;2.27;77.43
76205;BME280;64986;55.672;37.628;2023-04-01T03:00:27;98082.31;;;2.29;77.66
76205;BME280;64986;55.672;37.628;2023-04-01T03:02:53;98088.84;;;2.25;77.80
76205;BME280;64986;55.672;37.628;2023-04-01T03:05:19;98096.81;;;2.23;77.84
76205;BME280;64986;55.672;37.628;2023-04-01T03:07:45;98094.84;;;2.26;77.69
76205;BME280;64986;55.672;37.628;2023-04-01T03:10:11;98088.50;;;2.28;78.06
76205;BME280;64986;55.672;37.628;2023-04-01T03:12:37;98094.72;;;2.34;77.54
76205;BME280;64986;55.672;37.628;2023-04-01T03:15:02;98097.31;;;2.34;77.11
76205;BME280;64986;55.672;37.628;2023-04-01T03:17:28;98102.94;;;2.37;77.51
76205;BME280;64986;55.672;37.628;2023-04-01T03:19:54;98107.53;;;2.35;77.23
76205;BME280;64986;55.672;37.628;2023-04-01T03:22:19;98104.28;;;2.33;77.43
76205;BME280;64986;55.672;37.628;2023-04-01T03:24:47;98104.94;;;2.35;77.47
76205;BME280;64986;55.672;37.628;2023-04-01T03:27:13;98114.13;;;2.38;77.62
76205;BME280;64986;55.672;37.628;2023-04-01T03:29:38;98110.72;;;2.37;77.53
76205;BME280;64986;55.672;37.628;2023-04-01T03:32:04;98112.94;;;2.40;77.14
76205;BME280;64986;55.672;37.628;2023-04-01T03:34:30;98118.78;;;2.42;76.92
76205;BME280;64986;55.672;37.628;2023-04-01T03:36:56;98110.13;;;2.35;76.61
76205;BME280;64986;55.672;37.628;2023-04-01T03:39:21;98119.25;;;2.31;77.31
76205;BME280;64986;55.672;37.628;2023-04-01T03:41:47;98121.84;;;2.31;77.45
76205;BME280;64986;55.672;37.628;2023-04-01T03:44:13;98117.66;;;2.30;77.58
76205;BME280;64986;55.672;37.628;2023-04-01T03:46:38;98117.91;;;2.35;77.85
76205;BME280;64986;55.672;37.628;2023-04-01T03:49:09;98133.31;;;2.37;77.44
76205;BME280;64986;55.672;37.628;2023-04-01T03:51:43;98134.53;;;2.41;78.00
76205;BME280;64986;55.672;37.628;2023-04-01T03:54:09;98139.38;;;2.44;77.27
76205;BME280;64986;55.672;37.628;2023-04-01T03:56:36;98142.56;;;2.46;77.31
76205;BME280;64986;55.672;37.628;2023-04-01T03:59:03;98150.97;;;2.48;77.34
76205;BME280;64986;55.672;37.628;2023-04-01T04:01:29;98149.00;;;2.50;77.26
76205;BME280;64986;55.672;37.628;2023-04-01T04:03:56;98148.81;;;2.52;77.30
76205;BME280;64986;55.672;37.628;2023-04-01T04:06:22;98149.06;;;2.57;76.83
76205;BME280;64986;55.672;37.628;2023-04-01T04:08:48;98153.28;;;2.58;76.78
76205;BME280;64986;55.672;37.628;2023-04-01T04:11:14;98151.03;;;2.55;76.45
76205;BME280;64986;55.672;37.628;2023-04-01T04:13:40;98153.56;;;2.48;76.92
76205;BME280;64986;55.672;37.628;2023-04-01T04:16:07;98157.78;;;2.49;76.77
76205;BME280;64986;55.672;37.628;2023-04-01T04:18:33;98158.97;;;2.46;77.38
76205;BME280;64986;55.672;37.628;2023-04-01T04:20:59;98161.34;;;2.48;77.40
76205;BME280;64986;55.672;37.628;2023-04-01T04:23:24;98162.94;;;2.42;76.37
76205;BME280;64986;55.672;37.628;2023-04-01T04:25:58;98163.16;;;2.47;76.82
76205;BME280;64986;55.672;37.628;2023-04-01T04:28:25;98163.81;;;2.49;77.30
76205;BME280;64986;55.672;37.628;2023-04-01T04:30:51;98164.03;;;2.55;77.19
76205;BME280;64986;55.672;37.628;2023-04-01T04:33:17;98166.28;;;2.58;76.36
76205;BME280;64986;55.672;37.628;2023-04-01T04:35:42;98165.09;;;2.60;76.83
76205;BME280;64986;55.672;37.628;2023-04-01T04:38:08;98169.09;;;2.63;77.41
76205;BME280;64986;55.672;37.628;2023-04-01T04:40:36;98171.34;;;2.66;76.75
76205;BME280;64986;55.672;37.628;2023-04-01T04:43:03;98174.53;;;2.68;77.18
76205;BME280;64986;55.672;37.628;2023-04-01T04:45:28;98174.34;;;2.69;76.76
76205;BME280;64986;55.672;37.628;2023-04-01T04:47:54;98176.47;;;2.81;76.66
76205;BME280;64986;55.672;37.628;2023-04-01T04:50:20;98186.09;;;2.87;76.81
76205;BME280;64986;55.672;37.628;2023-04-01T04:52:45;98179.72;;;2.89;76.04
76205;BME280;64986;55.672;37.628;2023-04-01T04:55:11;98190.97;;;2.96;76.43
76205;BME280;64986;55.672;37.628;2023-04-01T04:57:36;98185.41;;;2.99;76.30
76205;BME280;64986;55.672;37.628;2023-04-01T05:00:02;98192.31;;;3.14;76.11
76205;BME280;64986;55.672;37.628;2023-04-01T05:02:29;98193.75;;;3.23;75.90
76205;BME280;64986;55.672;37.628;2023-04-01T05:04:54;98203.81;;;3.26;75.49
76205;BME280;64986;55.672;37.628;2023-04-01T05:07:20;98195.00;;;3.27;75.22
76205;BME280;64986;55.672;37.628;2023-04-01T05:09:46;98198.53;;;3.47;75.53
76205;BME280;64986;55.672;37.628;2023-04-01T05:12:12;98204.59;;;3.61;74.74
76205;BME280;64986;55.672;37.628;2023-04-01T05:14:38;98209.09;;;3.74;74.37
76205;BME280;64986;55.672;37.628;2023-04-01T05:17:08;98198.72;;;3.80;74.22
76205;BME280;64986;55.672;37.628;2023-04-01T05:19:34;98200.75;;;3.92;73.89
76205;BME280;64986;55.672;37.628;2023-04-01T05:22:00;98207.00;;;3.97;73.56
76205;BME280;64986;55.672;37.628;2023-04-01T05:24:25;98212.22;;;3.97;73.38
76205;BME280;64986;55.672;37.628;2023-04-01T05:26:51;98209.19;;;4.00;73.22
76205;BME280;64986;55.672;37.628;2023-04-01T05:29:16;98216.22;;;4.00;73.58
76205;BME280;64986;55.672;37.628;2023-04-01T05:31:42;98208.78;;;3.90;73.30
76205;BME280;64986;55.672;37.628;2023-04-01T05:34:07;98215.50;;;3.78;72.97
76205;BME280;64986;55.672;37.628;2023-04-01T05:36:33;98213.53;;;3.80;73.54
76205;BME280;64986;55.672;37.628;2023-04-01T05:38:59;98217.94;;;3.79;73.70
76205;BME280;64986;55.672;37.628;2023-04-01T05:41:25;98220.97;;;3.89;73.82
76205;BME280;64986;55.672;37.628;2023-04-01T05:43:50;98222.06;;;4.02;73.33
76205;BME280;64986;55.672;37.628;2023-04-01T05:46:16;98220.13;;;4.17;72.95
76205;BME280;64986;55.672;37.628;2023-04-01T05:48:41;98216.56;;;4.31;72.44
76205;BME280;64986;55.672;37.628;2023-04-01T05:51:13;98223.41;;;4.39;72.04
76205;BME280;64986;55.672;37.628;2023-04-01T05:53:39;98218.78;;;4.41;72.01
76205;BME280;64986;55.672;37.628;2023-04-01T05:56:04;98223.41;;;4.39;72.32
76205;BME280;64986;55.672;37.628;2023-04-01T05:58:30;98228.03;;;4.50;72.32
76205;BME280;64986;55.672;37.628;2023-04-01T06:01:10;98235.09;;;4.69;71.60
76205;BME280;64986;55.672;37.628;2023-04-01T06:03:36;98231.09;;;4.87;71.38
76205;BME280;64986;55.672;37.628;2023-04-01T06:06:02;98236.72;;;5.04;71.11
76205;BME280;64986;55.672;37.628;2023-04-01T06:08:30;98221.28;;;5.22;71.07
76205;BME280;64986;55.672;37.628;2023-04-01T06:33:25;98248.78;;;5.18;69.66
76205;BME280;64986;55.672;37.628;2023-04-01T06:39:02;98247.34;;;5.28;69.17
76205;BME280;64986;55.672;37.628;2023-04-01T06:46:53;98247.19;;;5.30;69.35
76205;BME280;64986;55.672;37.628;2023-04-01T06:52:02;98267.22;;;5.03;69.42
76205;BME280;64986;55.672;37.628;2023-04-01T06:54:35;98260.41;;;5.02;70.07
76205;BME280;64986;55.672;37.628;2023-04-01T06:59:54;98271.03;;;5.27;69.39
76205;BME280;64986;55.672;37.628;2023-04-01T07:02:29;98272.44;;;5.43;69.24
76205;BME280;64986;55.672;37.628;2023-04-01T07:04:59;98271.00;;;5.73;69.01
76205;BME280;64986;55.672;37.628;2023-04-01T07:07:35;98267.81;;;5.98;66.85
76205;BME280;64986;55.672;37.628;2023-04-01T07:10:09;98274.53;;;6.25;66.21
76205;BME280;64986;55.672;37.628;2023-04-01T07:12:48;98269.69;;;6.35;65.26
76205;BME280;64986;55.672;37.628;2023-04-01T07:15:22;98268.56;;;6.56;65.69
76205;BME280;64986;55.672;37.628;2023-04-01T07:17:55;98270.91;;;6.71;65.85
76205;BME280;64986;55.672;37.628;2023-04-01T07:20:25;98272.06;;;6.82;65.43
76205;BME280;64986;55.672;37.628;2023-04-01T07:22:57;98273.84;;;7.19;65.19
76205;BME280;64986;55.672;37.628;2023-04-01T07:25:44;98272.16;;;7.25;62.60
76205;BME280;64986;55.672;37.628;2023-04-01T07:28:13;98275.53;;;7.32;63.88
76205;BME280;64986;55.672;37.628;2023-04-01T07:39:04;98279.09;;;7.63;62.22
76205;BME280;64986;55.672;37.628;2023-04-01T07:41:47;98280.69;;;7.89;60.54
76205;BME280;64986;55.672;37.628;2023-04-01T07:44:40;98290.25;;;8.38;59.62
76205;BME280;64986;55.672;37.628;2023-04-01T07:50:21;98289.25;;;8.39;59.98
76205;BME280;64986;55.672;37.628;2023-04-01T07:53:03;98289.78;;;8.78;60.26
76205;BME280;64986;55.672;37.628;2023-04-01T07:55:44;98297.44;;;8.61;58.32
76205;BME280;64986;55.672;37.628;2023-04-01T08:12:45;98304.91;;;9.71;54.35
76205;BME280;64986;55.672;37.628;2023-04-01T08:15:23;98306.38;;;9.32;57.46
76205;BME280;64986;55.672;37.628;2023-04-01T08:18:06;98317.03;;;8.77;57.81
76205;BME280;64986;55.672;37.628;2023-04-01T08:20:41;98303.81;;;8.35;57.15
76205;BME280;64986;55.672;37.628;2023-04-01T08:23:14;98301.69;;;8.62;56.11
76205;BME280;64986;55.672;37.628;2023-04-01T08:28:34;98307.28;;;9.49;56.18
76205;BME280;64986;55.672;37.628;2023-04-01T08:33:53;98307.41;;;9.31;55.36
76205;BME280;64986;55.672;37.628;2023-04-01T08:36:35;98317.91;;;9.31;52.01
76205;BME280;64986;55.672;37.628;2023-04-01T08:39:18;98316.50;;;9.28;52.68
76205;BME280;64986;55.672;37.628;2023-04-01T08:47:29;98326.09;;;8.63;52.98
76205;BME280;64986;55.672;37.628;2023-04-01T08:51:02;98327.09;;;7.82;54.53
76205;BME280;64986;55.672;37.628;2023-04-01T08:53:25;98321.28;;;7.79;55.87
76205;BME280;64986;55.672;37.628;2023-04-01T08:56:14;98324.56;;;7.93;56.36
76205;BME280;64986;55.672;37.628;2023-04-01T08:58:54;98321.41;;;8.10;55.99
76205;BME280;64986;55.672;37.628;2023-04-01T09:12:15;98336.34;;;8.27;54.14
76205;BME280;64986;55.672;37.628;2023-04-01T09:20:27;98343.31;;;8.88;51.36
76205;BME280;64986;55.672;37.628;2023-04-01T09:45:47;98357.13;;;11.47;43.53
76205;BME280;64986;55.672;37.628;2023-04-01T10:01:42;98373.13;;;13.12;39.58
76205;BME280;64986;55.672;37.628;2023-04-01T10:08:00;98373.66;;;14.94;34.79
76205;BME280;64986;55.672;37.628;2023-04-01T10:13:20;98380.94;;;14.14;34.81
76205;BME280;64986;55.672;37.628;2023-04-01T10:30:19;98390.59;;;16.92;33.20
76205;BME280;64986;55.672;37.628;2023-04-01T10:33:12;98390.03;;;17.50;32.08
76205;BME280;64986;55.672;37.628;2023-04-01T10:39:17;98389.19;;;19.75;27.67
76205;BME280;64986;55.672;37.628;2023-04-01T10:42:01;98393.47;;;20.22;25.98
76205;BME280;64986;55.672;37.628;2023-04-01T10:56:07;98405.66;;;18.53;27.95
76205;BME280;64986;55.672;37.628;2023-04-01T11:02:17;98396.88;;;20.83;27.03
76205;BME280;64986;55.672;37.628;2023-04-01T11:40:49;98422.34;;;17.23;nan
76205;BME280;64986;55.672;37.628;2023-04-01T11:52:21;98403.72;;;15.41;nan
76205;BME280;64986;55.672;37.628;2023-04-01T12:22:49;98424.56;;;14.12;nan
76205;BME280;64986;55.672;37.628;2023-04-01T12:30:58;98427.75;;;13.77;nan
76205;BME280;64986;55.672;37.628;2023-04-01T12:45:01;98427.56;;;13.13;nan
76205;BME280;64986;55.672;37.628;2023-04-01T12:56:32;98451.84;;;12.49;nan
76205;BME280;64986;55.672;37.628;2023-04-01T13:05:15;98456.94;;;11.72;nan
76205;BME280;64986;55.672;37.628;2023-04-01T13:10:41;98459.13;;;11.63;nan
76205;BME280;64986;55.672;37.628;2023-04-01T13:16:23;98466.97;;;10.66;nan
76205;BME280;64986;55.672;37.628;2023-04-01T13:19:08;98463.41;;;10.48;nan
76205;BME280;64986;55.672;37.628;2023-04-01T13:27:07;98473.25;;;10.65;nan
76205;BME280;64986;55.672;37.628;2023-04-01T13:29:43;98478.69;;;10.16;nan
76205;BME280;64986;55.672;37.628;2023-04-01T13:35:20;98484.63;;;10.12;nan
76205;BME280;64986;55.672;37.628;2023-04-01T13:43:00;98498.31;;;9.60;nan
76205;BME280;64986;55.672;37.628;2023-04-01T13:46:16;98500.25;;;9.35;nan
76205;BME280;64986;55.672;37.628;2023-04-01T13:48:27;98500.75;;;9.43;nan
76205;BME280;64986;55.672;37.628;2023-04-01T13:56:32;98500.94;;;9.60;nan
76205;BME280;64986;55.672;37.628;2023-04-01T13:59:26;98508.22;;;9.58;nan
76205;BME280;64986;55.672;37.628;2023-04-01T14:11:20;98512.72;;;9.21;nan
76205;BME280;64986;55.672;37.628;2023-04-01T14:14:17;98518.28;;;9.31;nan
76205;BME280;64986;55.672;37.628;2023-04-01T14:17:08;98515.88;;;9.30;nan
76205;BME280;64986;55.672;37.628;2023-04-01T14:22:38;98521.13;;;9.30;nan
76205;BME280;64986;55.672;37.628;2023-04-01T14:36:47;98520.22;;;8.31;nan
76205;BME280;64986;55.672;37.628;2023-04-01T14:39:29;98527.59;;;8.47;nan
76205;BME280;64986;55.672;37.628;2023-04-01T14:48:48;98543.91;;;8.74;nan
76205;BME280;64986;55.672;37.628;2023-04-01T14:50:49;98534.66;;;8.72;nan
76205;BME280;64986;55.672;37.628;2023-04-01T14:58:16;98547.06;;;8.58;nan
76205;BME280;64986;55.672;37.628;2023-04-01T15:00:50;98554.16;;;8.57;nan
76205;BME280;64986;55.672;37.628;2023-04-01T15:09:24;98563.19;;;8.30;nan
76205;BME280;64986;55.672;37.628;2023-04-01T15:14:33;98570.47;;;7.96;nan
76205;BME280;64986;55.672;37.628;2023-04-01T15:22:57;98571.53;;;7.89;nan
76205;BME280;64986;55.672;37.628;2023-04-01T15:30:27;98589.75;;;8.09;nan
76205;BME280;64986;55.672;37.628;2023-04-01T15:36:20;98587.22;;;7.95;nan
76205;BME280;64986;55.672;37.628;2023-04-01T15:55:27;98612.41;;;7.96;nan
76205;BME280;64986;55.672;37.628;2023-04-01T16:00:49;98623.28;;;7.93;nan
76205;BME280;64986;55.672;37.628;2023-04-01T16:03:30;98624.28;;;7.92;nan
76205;BME280;64986;55.672;37.628;2023-04-01T16:11:54;98631.25;;;7.73;nan
76205;BME280;64986;55.672;37.628;2023-04-01T16:17:37;98631.47;;;7.65;nan
76205;BME280;64986;55.672;37.628;2023-04-01T16:22:58;98649.47;;;7.48;nan
76205;BME280;64986;55.672;37.628;2023-04-01T16:25:41;98647.44;;;7.44;nan
76205;BME280;64986;55.672;37.628;2023-04-01T16:28:27;98657.50;;;7.40;nan
76205;BME280;64986;55.672;37.628;2023-04-01T16:31:04;98665.19;;;7.35;nan
76205;BME280;64986;55.672;37.628;2023-04-01T16:34:14;98666.38;;;7.33;nan
76205;BME280;64986;55.672;37.628;2023-04-01T16:44:21;98671.22;;;7.09;nan
76205;BME280;64986;55.672;37.628;2023-04-01T16:47:07;98666.81;;;7.10;67.49
76205;BME280;64986;55.672;37.628;2023-04-01T16:49:40;98666.81;;;7.10;67.74
76205;BME280;64986;55.672;37.628;2023-04-01T16:54:47;98670.47;;;6.95;68.58
76205;BME280;64986;55.672;37.628;2023-04-01T16:59:56;98683.13;;;6.85;68.07
76205;BME280;64986;55.672;37.628;2023-04-01T17:02:35;98679.91;;;6.83;69.17
76205;BME280;64986;55.672;37.628;2023-04-01T17:05:05;98681.31;;;6.86;68.47
76205;BME280;64986;55.672;37.628;2023-04-01T17:10:14;98686.53;;;6.86;69.42
76205;BME280;64986;55.672;37.628;2023-04-01T17:15:33;98691.97;;;6.84;69.42
76205;BME280;64986;55.672;37.628;2023-04-01T17:20:54;98688.94;;;7.01;67.70
76205;BME280;64986;55.672;37.628;2023-04-01T17:23:43;98691.97;;;6.84;69.03
76205;BME280;64986;55.672;37.628;2023-04-01T17:35:16;98688.56;;;6.90;68.75
76205;BME280;64986;55.672;37.628;2023-04-01T17:40:44;98697.81;;;6.93;69.72
76205;BME280;64986;55.672;37.628;2023-04-01T17:48:49;98690.97;;;6.99;68.69
76205;BME280;64986;55.672;37.628;2023-04-01T17:59:49;98716.53;;;7.10;69.22
76205;BME280;64986;55.672;37.628;2023-04-01T18:10:48;98716.72;;;6.95;69.44
76205;BME280;64986;55.672;37.628;2023-04-01T18:18:50;98715.13;;;7.07;69.01
76205;BME280;64986;55.672;37.628;2023-04-01T18:21:26;98724.19;;;6.91;69.71
76205;BME280;64986;55.672;37.628;2023-04-01T18:26:59;98726.38;;;6.81;70.55
76205;BME280;64986;55.672;37.628;2023-04-01T18:31:56;98732.59;;;6.67;70.84
76205;BME280;64986;55.672;37.628;2023-04-01T18:37:23;98754.53;;;6.73;71.40
76205;BME280;64986;55.672;37.628;2023-04-01T18:39:55;98747.28;;;6.75;70.91
76205;BME280;64986;55.672;37.628;2023-04-01T18:42:41;98751.28;;;6.71;71.83
76205;BME280;64986;55.672;37.628;2023-04-01T18:45:14;98744.69;;;6.81;70.74
76205;BME280;64986;55.672;37.628;2023-04-01T18:48:30;98752.31;;;6.70;72.17
76205;BME280;64986;55.672;37.628;2023-04-01T18:50:51;98753.06;;;6.57;72.51
76205;BME280;64986;55.672;37.628;2023-04-01T18:53:31;98754.91;;;6.63;72.11
76205;BME280;64986;55.672;37.628;2023-04-01T18:56:03;98753.06;;;6.57;72.16
76205;BME280;64986;55.672;37.628;2023-04-01T18:58:54;98755.91;;;6.62;72.01
76205;BME280;64986;55.672;37.628;2023-04-01T19:04:37;98752.09;;;6.58;72.89
76205;BME280;64986;55.672;37.628;2023-04-01T19:10:44;98765.53;;;6.55;72.29
76205;BME280;64986;55.672;37.628;2023-04-01T19:21:33;98767.56;;;6.59;73.06
76205;BME280;64986;55.672;37.628;2023-04-01T19:26:30;98772.19;;;6.64;72.09
76205;BME280;64986;55.672;37.628;2023-04-01T19:32:21;98779.84;;;6.59;73.49
76205;BME280;64986;55.672;37.628;2023-04-01T19:35:07;98777.22;;;6.59;73.20
76205;BME280;64986;55.672;37.628;2023-04-01T19:37:50;98775.03;;;6.69;72.39
76205;BME280;64986;55.672;37.628;2023-04-01T19:40:41;98776.44;;;6.72;72.57
76205;BME280;64986;55.672;37.628;2023-04-01T19:46:29;98777.84;;;6.67;72.04
76205;BME280;64986;55.672;37.628;2023-04-01T19:49:11;98788.13;;;6.76;72.43
76205;BME280;64986;55.672;37.628;2023-04-01T19:57:06;98789.94;;;6.75;72.57
76205;BME280;64986;55.672;37.628;2023-04-01T20:05:26;98796.78;;;6.76;73.27
76205;BME280;64986;55.672;37.628;2023-04-01T20:08:13;98790.34;;;6.79;72.46
76205;BME280;64986;55.672;37.628;2023-04-01T20:10:46;98788.75;;;6.78;72.78
76205;BME280;64986;55.672;37.628;2023-04-01T20:13:51;98788.75;;;6.84;72.37
76205;BME280;64986;55.672;37.628;2023-04-01T20:16:11;98795.22;;;6.95;72.45
76205;BME280;64986;55.672;37.628;2023-04-01T20:21:46;98792.59;;;7.02;72.62
76205;BME280;64986;55.672;37.628;2023-04-01T20:26:41;98800.88;;;6.99;71.55
76205;BME280;64986;55.672;37.628;2023-04-01T20:34:36;98808.50;;;6.93;73.12
76205;BME280;64986;55.672;37.628;2023-04-01T20:37:16;98803.88;;;6.89;72.96
76205;BME280;64986;55.672;37.628;2023-04-01T20:53:12;98802.69;;;7.05;72.30
76205;BME280;64986;55.672;37.628;2023-04-01T20:58:28;98802.28;;;7.08;72.71
76205;BME280;64986;55.672;37.628;2023-04-01T21:00:57;98807.31;;;7.09;72.12
76205;BME280;64986;55.672;37.628;2023-04-01T21:04:41;98810.56;;;7.11;73.01
76205;BME280;64986;55.672;37.628;2023-04-01T21:18:09;98814.78;;;7.06;73.01
76205;BME280;64986;55.672;37.628;2023-04-01T21:21:07;98816.38;;;7.07;72.64
76205;BME280;64986;55.672;37.628;2023-04-01T21:23:51;98818.22;;;7.13;72.83
76205;BME280;64986;55.672;37.628;2023-04-01T21:34:48;98823.81;;;7.10;72.55
76205;BME280;64986;55.672;37.628;2023-04-01T21:43:05;98832.50;;;7.17;73.43
76205;BME280;64986;55.672;37.628;2023-04-01T21:49:14;98839.97;;;7.20;73.32
76205;BME280;64986;55.672;37.628;2023-04-01T21:52:09;98840.97;;;7.19;73.44
76205;BME280;64986;55.672;37.628;2023-04-01T21:54:49;98842.38;;;7.21;72.66
76205;BME280;64986;55.672;37.628;2023-04-01T22:00:25;98836.34;;;7.21;72.62
76205;BME280;64986;55.672;37.628;2023-04-01T22:03:02;98849.22;;;7.22;72.61
76205;BME280;64986;55.672;37.628;2023-04-01T22:05:54;98844.00;;;7.29;72.96
76205;BME280;64986;55.672;37.628;2023-04-01T22:08:50;98841.59;;;7.28;73.42
76205;BME280;64986;55.672;37.628;2023-04-01T22:14:15;98835.53;;;7.20;73.40
76205;BME280;64986;55.672;37.628;2023-04-01T22:16:53;98835.53;;;7.14;73.45
76205;BME280;64986;55.672;37.628;2023-04-01T22:22:22;98829.66;;;7.05;74.01
76205;BME280;64986;55.672;37.628;2023-04-01T22:25:14;98839.75;;;7.15;74.42
76205;BME280;64986;55.672;37.628;2023-04-01T22:27:49;98827.06;;;7.12;74.15
76205;BME280;64986;55.672;37.628;2023-04-01T22:36:10;98849.16;;;7.03;74.73
76205;BME280;64986;55.672;37.628;2023-04-01T22:43:59;98846.75;;;7.01;73.82
76205;BME280;64986;55.672;37.628;2023-04-01T22:46:49;98852.19;;;7.00;75.46
76205;BME280;64986;55.672;37.628;2023-04-01T22:49:23;98848.38;;;7.02;74.30
76205;BME280;64986;55.672;37.628;2023-04-01T22:54:30;98860.25;;;7.05;74.88
76205;BME280;64986;55.672;37.628;2023-04-01T22:59:50;98859.25;;;6.99;76.18
76205;BME280;64986;55.672;37.628;2023-04-01T23:02:24;98841.94;;;6.98;75.97
76205;BME280;64986;55.672;37.628;2023-04-01T23:04:57;98834.66;;;6.93;76.28
76205;BME280;64986;55.672;37.628;2023-04-01T23:07:48;98846.16;;;6.99;76.97
76205;BME280;64986;55.672;37.628;2023-04-01T23:13:10;98849.16;;;6.89;77.30
76205;BME280;64986;55.672;37.628;2023-04-01T23:15:38;98847.34;;;6.90;76.79
76205;BME280;64986;55.672;37.628;2023-04-01T23:18:36;98847.34;;;6.90;76.99
76205;BME280;64986;55.672;37.628;2023-04-01T23:21:15;98849.94;;;6.83;77.43
76205;BME280;64986;55.672;37.628;2023-04-01T23:26:40;98853.56;;;6.82;78.30
76205;BME280;64986;55.672;37.628;2023-04-01T23:29:14;98857.94;;;6.75;77.58